createdAt,value
2018-07-02T00:00:19.138Z,52.70
2018-07-02T00:02:48.851Z,53.00
2018-07-02T00:05:17.506Z,53.40
2018-07-02T00:07:46.022Z,52.80
2018-07-02T00:10:14.638Z,53.20
2018-07-02T00:12:43.323Z,52.90
2018-07-02T00:15:11.949Z,53.00
2018-07-02T00:17:40.734Z,53.40
2018-07-02T00:20:09.370Z,53.20
2018-07-02T00:22:37.959Z,52.90
2018-07-02T00:25:06.621Z,52.70
2018-07-02T00:27:35.244Z,52.70
2018-07-02T00:30:03.994Z,52.60
2018-07-02T00:32:32.679Z,52.20
2018-07-02T00:35:01.256Z,52.40
2018-07-02T00:37:29.941Z,52.40
2018-07-02T00:39:58.613Z,52.30
2018-07-02T00:42:32.631Z,52.10
2018-07-02T00:45:01.203Z,51.70
2018-07-02T00:47:29.783Z,51.60
2018-07-02T00:49:58.428Z,51.90
2018-07-02T00:52:27.038Z,51.90
2018-07-02T00:54:55.678Z,51.90
2018-07-02T01:00:16.407Z,52.10
2018-07-02T01:02:45.061Z,51.60
2018-07-02T01:05:13.882Z,51.50
2018-07-02T01:07:43.851Z,51.60
2018-07-02T01:10:12.570Z,52.00
2018-07-02T01:12:41.216Z,51.80
2018-07-02T01:15:10.955Z,51.80
2018-07-02T01:17:39.554Z,51.90
2018-07-02T01:20:08.197Z,52.30
2018-07-02T01:22:36.778Z,52.50
2018-07-02T01:25:05.522Z,52.20
2018-07-02T01:27:34.790Z,52.20
2018-07-02T01:30:04.621Z,52.10
2018-07-02T01:32:33.266Z,52.40
2018-07-02T01:35:02.003Z,52.50
2018-07-02T01:37:30.661Z,51.60
2018-07-02T01:39:59.293Z,51.90
2018-07-02T01:42:27.898Z,52.20
2018-07-02T01:44:58.570Z,52.10
2018-07-02T01:47:27.189Z,51.80
2018-07-02T01:49:55.801Z,52.30
2018-07-02T01:52:24.386Z,51.50
2018-07-02T01:54:53.056Z,51.70
2018-07-02T01:57:21.722Z,51.60
2018-07-02T01:59:50.314Z,51.50
2018-07-02T02:02:19.984Z,51.50
2018-07-02T02:04:48.631Z,51.30
2018-07-02T02:07:17.322Z,51.40
2018-07-02T02:09:45.966Z,51.40
2018-07-02T02:12:14.648Z,51.30
2018-07-02T02:14:43.276Z,51.50
2018-07-02T02:17:11.892Z,51.80
2018-07-02T02:19:40.545Z,51.80
2018-07-02T02:22:10.282Z,52.00
2018-07-02T02:24:38.923Z,52.10
2018-07-02T02:27:07.564Z,52.30
2018-07-02T02:29:36.156Z,52.30
2018-07-02T02:32:04.912Z,52.50
2018-07-02T02:34:33.529Z,52.60
2018-07-02T02:39:30.544Z,53.10
2018-07-02T02:41:59.254Z,53.40
2018-07-02T02:44:27.865Z,53.40
2018-07-02T02:46:56.477Z,53.60
2018-07-02T02:49:25.129Z,53.50
2018-07-02T02:54:22.033Z,54.10
2018-07-02T02:56:50.794Z,54.00
2018-07-02T02:59:19.367Z,54.40
2018-07-02T03:01:48.018Z,54.60
2018-07-02T03:04:16.682Z,54.90
2018-07-02T03:06:45.380Z,55.20
2018-07-02T03:09:14.068Z,55.30
2018-07-02T03:11:42.679Z,55.50
2018-07-02T03:14:11.354Z,55.90
2018-07-02T03:16:39.894Z,56.20
2018-07-02T03:19:08.523Z,56.20
2018-07-02T03:21:37.176Z,56.40
2018-07-02T03:24:05.879Z,55.60
2018-07-02T03:26:34.519Z,56.00
2018-07-02T03:29:03.259Z,56.80
2018-07-02T03:31:31.911Z,56.90
2018-07-02T03:34:00.518Z,56.00
2018-07-02T03:36:29.164Z,55.90
2018-07-02T03:38:57.882Z,55.90
2018-07-02T03:41:26.494Z,56.20
2018-07-02T03:43:55.259Z,56.90
2018-07-02T03:46:23.943Z,56.40
2018-07-02T03:48:52.623Z,56.20
2018-07-02T03:51:21.373Z,56.10
2018-07-02T03:53:50.163Z,56.80
2018-07-02T03:56:18.838Z,56.30
2018-07-02T03:58:47.476Z,55.80
2018-07-02T04:01:16.306Z,56.00
2018-07-02T04:03:44.865Z,56.10
2018-07-02T04:06:13.623Z,56.10
2018-07-02T04:08:42.556Z,55.90
2018-07-02T04:11:11.214Z,56.10
2018-07-02T04:13:39.874Z,55.70
2018-07-02T04:16:08.669Z,56.10
2018-07-02T04:18:37.760Z,56.10
2018-07-02T04:21:06.411Z,56.20
2018-07-02T04:23:35.110Z,56.20
2018-07-02T04:26:03.899Z,56.70
2018-07-02T04:28:32.521Z,56.70
2018-07-02T04:31:01.148Z,56.90
2018-07-02T04:33:29.811Z,57.00
2018-07-02T04:35:58.425Z,56.90
2018-07-02T04:38:27.002Z,57.40
2018-07-02T04:40:55.665Z,57.40
2018-07-02T04:43:24.279Z,56.90
2018-07-02T04:45:52.915Z,57.30
2018-07-02T04:48:21.573Z,57.40
2018-07-02T04:50:50.239Z,57.70
2018-07-02T04:53:18.981Z,57.90
2018-07-02T04:55:47.659Z,57.40
2018-07-02T04:58:16.302Z,57.50
2018-07-02T05:00:44.931Z,56.50
2018-07-02T05:03:13.461Z,55.90
2018-07-02T05:05:41.984Z,56.50
2018-07-02T05:08:10.639Z,56.30
2018-07-02T05:13:07.528Z,55.50
2018-07-02T05:15:36.154Z,55.80
2018-07-02T05:18:04.897Z,55.00
2018-07-02T05:20:33.519Z,55.00
2018-07-02T05:23:02.059Z,54.60
2018-07-02T05:25:30.686Z,54.70
2018-07-02T05:27:59.257Z,54.50
2018-07-02T05:30:27.837Z,54.30
2018-07-02T05:32:56.501Z,54.50
2018-07-02T05:35:25.063Z,54.10
2018-07-02T05:37:53.855Z,53.90
2018-07-02T05:40:22.466Z,53.90
2018-07-02T05:42:51.078Z,53.60
2018-07-02T05:45:19.678Z,54.10
2018-07-02T05:47:48.299Z,53.80
2018-07-02T05:50:16.900Z,53.60
2018-07-02T05:52:45.477Z,52.70
2018-07-02T05:55:14.114Z,53.20
2018-07-02T05:57:42.697Z,53.20
2018-07-02T06:00:11.689Z,52.90
2018-07-02T06:02:40.258Z,52.60
2018-07-02T06:05:08.862Z,52.60
2018-07-02T06:07:37.468Z,52.40
2018-07-02T06:10:06.241Z,52.50
2018-07-02T06:12:34.842Z,51.90
2018-07-02T06:15:03.518Z,52.30
2018-07-02T06:17:32.177Z,52.10
2018-07-02T06:20:00.803Z,51.20
2018-07-02T06:22:29.446Z,50.90
2018-07-02T06:24:58.067Z,50.80
2018-07-02T06:27:26.750Z,50.40
2018-07-02T06:29:55.390Z,51.30
2018-07-02T06:32:23.980Z,51.10
2018-07-02T06:34:52.527Z,50.90
2018-07-02T06:37:21.178Z,50.90
2018-07-02T06:39:49.797Z,50.10
2018-07-02T06:42:18.434Z,49.70
2018-07-02T06:44:47.053Z,50.30
2018-07-02T06:47:16.564Z,49.70
2018-07-02T06:49:45.100Z,50.00
2018-07-02T06:52:13.734Z,49.30
2018-07-02T06:54:42.460Z,48.50
2018-07-02T06:57:11.162Z,48.40
2018-07-02T06:59:39.772Z,48.80
2018-07-02T07:02:08.489Z,48.40
2018-07-02T07:04:37.091Z,48.50
2018-07-02T07:07:05.741Z,48.10
2018-07-02T07:09:34.300Z,47.70
2018-07-02T07:12:02.888Z,47.40
2018-07-02T07:14:31.620Z,47.60
2018-07-02T07:17:00.140Z,47.50
2018-07-02T07:19:28.916Z,47.20
2018-07-02T07:21:57.575Z,46.80
2018-07-02T07:24:26.205Z,47.00
2018-07-02T07:26:54.782Z,46.50
2018-07-02T07:29:23.398Z,46.10
2018-07-02T07:31:52.019Z,45.80
2018-07-02T07:34:20.659Z,45.80
2018-07-02T07:36:49.187Z,46.10
2018-07-02T07:39:17.807Z,45.30
2018-07-02T07:41:46.445Z,45.10
2018-07-02T07:44:15.121Z,44.70
2018-07-02T07:46:43.658Z,44.70
2018-07-02T07:49:12.297Z,44.00
2018-07-02T07:51:40.901Z,44.20
2018-07-02T07:54:10.094Z,44.60
2018-07-02T07:56:38.726Z,43.90
2018-07-02T07:59:07.462Z,44.40
2018-07-02T08:01:36.175Z,43.80
2018-07-02T08:04:04.817Z,44.00
2018-07-02T08:06:33.464Z,43.30
2018-07-02T08:09:02.159Z,43.40
2018-07-02T08:11:30.743Z,42.80
2018-07-02T08:13:59.346Z,42.30
2018-07-02T08:16:27.932Z,42.30
2018-07-02T08:18:56.709Z,41.20
2018-07-02T08:21:25.262Z,41.30
2018-07-02T08:23:53.961Z,41.40
2018-07-02T08:26:22.627Z,41.50
2018-07-02T08:28:51.259Z,41.30
2018-07-02T08:31:19.939Z,41.50
2018-07-02T08:33:48.516Z,40.90
2018-07-02T08:36:17.165Z,40.80
2018-07-02T08:38:45.906Z,40.70
2018-07-02T08:41:14.615Z,40.50
2018-07-02T08:43:43.319Z,41.50
2018-07-02T08:46:12.026Z,41.50
2018-07-02T08:48:40.558Z,40.80
2018-07-02T08:51:09.162Z,41.00
2018-07-02T08:53:37.680Z,40.90
2018-07-02T08:56:06.562Z,40.20
2018-07-02T08:58:35.327Z,39.80
2018-07-02T09:01:04.357Z,40.40
2018-07-02T09:03:33.067Z,39.10
2018-07-02T09:06:01.791Z,39.50
2018-07-02T09:08:30.456Z,39.00
2018-07-02T09:10:59.130Z,38.20
2018-07-02T09:13:27.742Z,37.80
2018-07-02T09:15:56.416Z,38.40
2018-07-02T09:18:25.111Z,38.70
2018-07-02T09:20:54.798Z,38.20
2018-07-02T09:23:23.409Z,37.10
2018-07-02T09:25:52.052Z,37.50
2018-07-02T09:28:20.685Z,36.60
2018-07-02T09:30:49.273Z,36.50
2018-07-02T09:33:17.883Z,36.10
2018-07-02T09:35:46.569Z,36.10
2018-07-02T09:38:15.193Z,35.80
2018-07-02T09:40:43.989Z,35.50
2018-07-02T09:43:12.429Z,35.70
2018-07-02T09:45:41.027Z,35.70
2018-07-02T09:48:09.674Z,35.70
2018-07-02T09:50:38.335Z,35.70
2018-07-02T09:53:06.996Z,34.90
2018-07-02T09:55:35.694Z,34.60
2018-07-02T09:58:04.348Z,33.80
2018-07-02T10:00:34.181Z,33.70
2018-07-02T10:03:02.855Z,34.80
2018-07-02T10:05:31.423Z,34.10
2018-07-02T10:08:00.070Z,35.00
2018-07-02T10:10:28.731Z,34.30
2018-07-02T10:12:57.343Z,34.20
2018-07-02T10:15:27.014Z,33.60
2018-07-02T10:17:55.675Z,33.80
2018-07-02T10:22:52.616Z,33.20
2018-07-02T10:25:21.267Z,33.00
2018-07-02T10:27:49.876Z,32.50
2018-07-02T10:30:18.507Z,32.20
2018-07-02T10:32:47.114Z,32.50
2018-07-02T10:35:15.802Z,32.20
2018-07-02T10:37:44.434Z,32.80
2018-07-02T10:40:13.024Z,30.90
2018-07-02T10:42:41.688Z,31.30
2018-07-02T10:45:10.324Z,31.90
2018-07-02T10:47:38.967Z,31.20
2018-07-02T10:50:07.597Z,30.90
2018-07-02T10:52:36.353Z,31.80
2018-07-02T10:55:05.125Z,31.80
2018-07-02T10:57:33.752Z,31.80
2018-07-02T11:00:02.398Z,31.80
2018-07-02T11:02:31.096Z,31.70
2018-07-02T11:04:59.679Z,30.80
2018-07-02T11:07:28.309Z,31.60
2018-07-02T11:09:56.945Z,31.70
2018-07-02T11:12:25.526Z,31.30
2018-07-02T11:14:54.139Z,29.70
2018-07-02T11:17:22.727Z,29.80
2018-07-02T11:19:51.321Z,29.20
2018-07-02T11:22:19.885Z,29.50
2018-07-02T11:24:48.474Z,30.00
2018-07-02T11:27:17.266Z,29.80
2018-07-02T11:29:45.889Z,29.60
2018-07-02T11:32:14.474Z,30.60
2018-07-02T11:34:43.057Z,30.30
2018-07-02T11:37:11.678Z,30.30
2018-07-02T11:39:40.272Z,30.50
2018-07-02T11:42:08.981Z,30.20
2018-07-02T11:44:37.690Z,30.40
2018-07-02T11:47:06.398Z,29.70
2018-07-02T11:49:34.979Z,30.40
2018-07-02T11:52:03.617Z,30.10
2018-07-02T11:54:32.182Z,29.70
2018-07-02T11:57:00.826Z,30.00
2018-07-02T11:59:29.426Z,30.70
2018-07-02T12:01:58.419Z,29.90
2018-07-02T12:04:27.055Z,30.10
2018-07-02T12:06:55.690Z,30.80
2018-07-02T12:09:24.225Z,29.70
2018-07-02T12:11:52.910Z,29.80
2018-07-02T12:14:21.543Z,30.00
2018-07-02T12:16:50.145Z,30.00
2018-07-02T12:21:47.015Z,30.20
2018-07-02T12:24:15.645Z,30.90
2018-07-02T12:26:44.299Z,29.60
2018-07-02T12:29:12.929Z,29.60
2018-07-02T12:31:41.519Z,30.40
2018-07-02T12:34:10.146Z,30.30
2018-07-02T12:36:38.797Z,30.00
2018-07-02T12:39:10.337Z,30.40
2018-07-02T12:41:39.327Z,30.40
2018-07-02T12:44:07.910Z,30.00
2018-07-02T12:46:36.597Z,29.90
2018-07-02T12:49:05.246Z,29.60
2018-07-02T12:51:33.895Z,29.70
2018-07-02T12:54:02.550Z,30.20
2018-07-02T12:56:31.090Z,30.50
2018-07-02T12:59:00.714Z,30.00
2018-07-02T13:01:29.322Z,30.00
2018-07-02T13:03:59.088Z,30.30
2018-07-02T13:06:27.754Z,30.40
2018-07-02T13:08:56.359Z,30.30
2018-07-02T13:11:25.215Z,30.70
2018-07-02T13:13:53.867Z,29.70
2018-07-02T13:16:23.649Z,30.00
2018-07-02T13:18:52.259Z,30.00
2018-07-02T13:21:21.027Z,30.20
2018-07-02T13:23:50.660Z,30.40
2018-07-02T13:26:19.245Z,30.90
2018-07-02T13:28:47.859Z,29.90
2018-07-02T13:31:16.463Z,30.00
2018-07-02T13:33:45.032Z,30.20
2018-07-02T13:36:15.735Z,30.00
2018-07-02T13:38:44.339Z,30.20
2018-07-02T13:41:13.999Z,29.80
2018-07-02T13:43:42.611Z,30.00
2018-07-02T13:46:11.285Z,29.80
2018-07-02T13:48:40.097Z,30.30
2018-07-02T13:51:09.002Z,30.50
2018-07-02T13:53:37.690Z,30.00
2018-07-02T13:56:06.667Z,30.90
2018-07-02T13:58:35.754Z,30.50
2018-07-02T14:01:04.417Z,30.70
2018-07-02T14:03:35.899Z,30.00
2018-07-02T14:06:04.610Z,30.30
2018-07-02T14:08:33.223Z,30.50
2018-07-02T14:11:01.900Z,30.30
2018-07-02T14:13:30.570Z,30.60
2018-07-02T14:15:59.213Z,30.30
2018-07-02T14:18:28.870Z,29.90
2018-07-02T14:20:57.400Z,30.20
2018-07-02T14:23:26.083Z,29.80
2018-07-02T14:25:54.623Z,30.00
2018-07-02T14:28:23.245Z,30.00
2018-07-02T14:30:51.883Z,29.70
2018-07-02T14:33:20.473Z,30.00
2018-07-02T14:35:49.155Z,29.90
2018-07-02T14:38:18.036Z,30.10
2018-07-02T14:40:46.645Z,29.40
2018-07-02T14:43:15.440Z,30.00
2018-07-02T14:45:44.003Z,29.60
2018-07-02T14:48:12.582Z,29.80
2018-07-02T14:50:41.183Z,30.10
2018-07-02T14:53:09.788Z,29.90
2018-07-02T14:55:39.342Z,29.10
2018-07-02T14:58:07.968Z,29.40
2018-07-02T15:00:36.776Z,29.90
2018-07-02T15:03:05.637Z,30.70
2018-07-02T15:05:34.331Z,30.90
2018-07-02T15:08:02.931Z,30.90
2018-07-02T15:10:31.542Z,30.60
2018-07-02T15:13:00.082Z,30.50
2018-07-02T15:15:28.778Z,30.00
2018-07-02T15:17:57.393Z,30.10
2018-07-02T15:20:26.018Z,30.40
2018-07-02T15:22:54.683Z,29.90
2018-07-02T15:25:23.407Z,29.80
2018-07-02T15:27:52.029Z,30.00
2018-07-02T15:30:22.726Z,30.10
2018-07-02T15:32:51.254Z,30.10
2018-07-02T15:35:19.874Z,30.00
2018-07-02T15:37:48.469Z,29.60
2018-07-02T15:40:17.148Z,29.70
2018-07-02T15:42:45.781Z,30.10
2018-07-02T15:45:14.397Z,30.40
2018-07-02T15:47:42.992Z,29.80
2018-07-02T15:50:11.644Z,29.40
2018-07-02T15:52:40.246Z,30.10
2018-07-02T15:55:08.882Z,30.10
2018-07-02T15:57:37.547Z,29.60
2018-07-02T16:00:06.554Z,28.90
2018-07-02T16:02:35.363Z,29.00
2018-07-02T16:05:04.294Z,29.80
2018-07-02T16:07:32.973Z,29.20
2018-07-02T16:10:01.619Z,29.60
2018-07-02T16:12:30.190Z,29.30
2018-07-02T16:14:58.711Z,29.50
2018-07-02T16:17:27.397Z,29.40
2018-07-02T16:19:56.033Z,29.40
2018-07-02T16:22:24.762Z,28.60
2018-07-02T16:24:53.446Z,28.40
2018-07-02T16:27:22.055Z,27.60
2018-07-02T16:29:50.616Z,27.40
2018-07-02T16:32:19.355Z,26.60
2018-07-02T16:34:48.033Z,26.00
2018-07-02T16:37:16.583Z,25.30
2018-07-02T16:39:45.211Z,25.30
2018-07-02T16:42:13.967Z,24.70
2018-07-02T16:44:42.639Z,24.80
2018-07-02T16:47:11.244Z,24.70
2018-07-02T16:49:39.807Z,24.10
2018-07-02T16:52:08.335Z,23.40
2018-07-02T16:54:37.021Z,23.60
2018-07-02T16:57:05.642Z,24.00
2018-07-02T16:59:34.298Z,23.60
2018-07-02T17:02:03.810Z,23.20
2018-07-02T17:04:32.505Z,23.20
2018-07-02T17:07:01.191Z,22.90
2018-07-02T17:09:29.841Z,22.60
2018-07-02T17:11:58.443Z,22.30
2018-07-02T17:14:27.311Z,22.30
2018-07-02T17:16:56.315Z,22.40
2018-07-02T17:19:25.409Z,22.40
2018-07-02T17:21:54.495Z,22.40
2018-07-02T17:24:23.624Z,22.70
2018-07-02T17:26:52.632Z,22.30
2018-07-02T17:29:21.623Z,21.90
2018-07-02T17:31:50.611Z,22.40
2018-07-02T17:34:19.583Z,22.20
2018-07-02T17:36:48.483Z,22.70
2018-07-02T17:39:17.441Z,22.20
2018-07-02T17:41:46.249Z,22.30
2018-07-02T17:44:15.321Z,22.80
2018-07-02T17:46:44.380Z,22.50
2018-07-02T17:49:13.310Z,22.60
2018-07-02T17:51:42.331Z,22.70
2018-07-02T17:54:11.468Z,23.20
2018-07-02T17:56:40.505Z,23.50
2018-07-02T17:59:09.421Z,23.80
2018-07-02T18:01:38.306Z,22.90
2018-07-02T18:04:07.272Z,22.90
2018-07-02T18:06:36.313Z,22.40
2018-07-02T18:09:08.780Z,23.70
2018-07-02T18:11:37.765Z,23.70
2018-07-02T18:14:06.418Z,23.60
2018-07-02T18:16:35.077Z,23.70
2018-07-02T18:19:03.696Z,24.10
2018-07-02T18:21:32.320Z,25.00
2018-07-02T18:24:01.069Z,25.70
2018-07-02T18:26:29.716Z,28.30
2018-07-02T18:28:58.317Z,29.60
2018-07-02T18:31:26.990Z,30.70
2018-07-02T18:33:55.624Z,31.60
2018-07-02T18:36:24.258Z,33.10
2018-07-02T18:38:52.866Z,33.80
2018-07-02T18:43:49.884Z,36.20
2018-07-02T18:46:18.703Z,37.50
2018-07-02T18:48:47.447Z,37.90
2018-07-02T18:51:16.132Z,38.90
2018-07-02T18:53:44.777Z,38.60
2018-07-02T18:56:13.374Z,38.40
2018-07-02T18:58:41.971Z,39.10
2018-07-02T19:01:11.574Z,39.50
2018-07-02T19:03:40.153Z,39.10
2018-07-02T19:06:08.873Z,39.90
2018-07-02T19:08:37.538Z,39.90
2018-07-02T19:11:06.337Z,40.40
2018-07-02T19:13:34.998Z,40.00
2018-07-02T19:16:03.711Z,41.00
2018-07-02T19:18:33.111Z,40.50
2018-07-02T19:21:01.907Z,40.90
2018-07-02T19:23:31.840Z,40.30
2018-07-02T19:26:00.607Z,40.50
2018-07-02T19:28:29.173Z,40.30
2018-07-02T19:30:57.837Z,39.30
2018-07-02T19:33:26.401Z,39.70
2018-07-02T19:35:54.990Z,39.70
2018-07-02T19:38:23.506Z,40.00
2018-07-02T19:40:52.161Z,40.10
2018-07-02T19:43:20.708Z,39.80
2018-07-02T19:45:49.327Z,39.60
2018-07-02T19:48:17.990Z,39.00
2018-07-02T19:50:46.677Z,39.20
2018-07-02T19:53:15.285Z,38.40
2018-07-02T19:55:43.883Z,38.60
2018-07-02T20:00:40.802Z,38.30
2018-07-02T20:03:09.472Z,38.90
2018-07-02T20:05:38.150Z,39.00
2018-07-02T20:08:06.750Z,39.20
2018-07-02T20:10:35.423Z,38.80
2018-07-02T20:13:04.012Z,39.30
2018-07-02T20:15:32.748Z,40.70
2018-07-02T20:18:01.461Z,41.00
2018-07-02T20:20:30.004Z,41.00
2018-07-02T20:22:58.619Z,41.20
2018-07-02T20:25:27.291Z,41.60
2018-07-02T20:27:55.873Z,42.30
2018-07-02T20:30:24.780Z,42.50
2018-07-02T20:32:53.303Z,42.50
2018-07-02T20:35:21.968Z,42.40
2018-07-02T20:37:50.566Z,43.10
2018-07-02T20:40:19.148Z,43.20
2018-07-02T20:42:47.826Z,44.30
2018-07-02T20:45:16.448Z,44.40
2018-07-02T20:47:45.081Z,45.40
2018-07-02T20:50:13.694Z,46.70
2018-07-02T20:52:42.280Z,45.70
2018-07-02T20:55:10.936Z,46.60
2018-07-02T20:57:39.614Z,47.70
2018-07-02T21:00:08.306Z,49.00
2018-07-02T21:02:36.944Z,49.60
2018-07-02T21:05:05.634Z,49.10
2018-07-02T21:07:34.251Z,50.10
2018-07-02T21:10:03.031Z,50.30
2018-07-02T21:12:31.890Z,51.10
2018-07-02T21:15:00.642Z,51.70
2018-07-02T21:17:29.307Z,52.30
2018-07-02T21:19:57.878Z,52.40
2018-07-02T21:22:26.483Z,52.90
2018-07-02T21:24:55.083Z,53.30
2018-07-02T21:27:23.780Z,53.60
2018-07-02T21:29:52.323Z,53.70
2018-07-02T21:32:20.945Z,53.90
2018-07-02T21:34:49.524Z,54.50
2018-07-02T21:37:18.104Z,54.50
2018-07-02T21:39:46.679Z,54.60
2018-07-02T21:42:15.323Z,54.90
2018-07-02T21:44:43.904Z,55.80
2018-07-02T21:49:40.827Z,56.90
2018-07-02T21:52:09.471Z,57.00
2018-07-02T21:54:38.131Z,57.10
2018-07-02T21:57:06.809Z,57.20
2018-07-02T21:59:35.419Z,58.00
2018-07-02T22:02:04.163Z,57.90
2018-07-02T22:04:32.845Z,58.00
2018-07-02T22:07:01.507Z,58.30
2018-07-02T22:09:30.063Z,58.70
2018-07-02T22:11:58.678Z,59.00
2018-07-02T22:14:27.310Z,59.30
2018-07-02T22:16:55.879Z,59.30
2018-07-02T22:19:24.538Z,59.70
2018-07-02T22:21:53.480Z,59.70
2018-07-02T22:24:22.191Z,59.80
2018-07-02T22:26:51.067Z,60.00
2018-07-02T22:29:19.807Z,60.10
2018-07-02T22:31:48.410Z,60.80
2018-07-02T22:34:17.719Z,61.00
2018-07-02T22:36:46.302Z,61.60
2018-07-02T22:41:44.339Z,62.50
2018-07-02T22:44:12.971Z,61.90
2018-07-02T22:46:41.642Z,61.70
2018-07-02T22:49:10.346Z,62.40
2018-07-02T22:51:38.970Z,62.70
2018-07-02T22:54:07.626Z,62.60
2018-07-02T22:56:36.267Z,62.20
2018-07-02T22:59:04.975Z,61.80
2018-07-02T23:01:33.683Z,63.60
2018-07-02T23:04:02.229Z,64.20
2018-07-02T23:06:34.039Z,64.20
2018-07-02T23:09:02.741Z,63.80
2018-07-02T23:11:31.338Z,63.90
2018-07-02T23:13:59.978Z,63.90
2018-07-02T23:18:56.882Z,64.50
2018-07-02T23:21:25.500Z,64.40
2018-07-02T23:23:54.041Z,64.30
2018-07-02T23:26:22.708Z,65.00
2018-07-02T23:28:51.563Z,64.70
2018-07-02T23:31:20.258Z,64.40
2018-07-02T23:33:48.883Z,63.60
2018-07-02T23:36:17.527Z,65.90
2018-07-02T23:38:46.119Z,67.20
2018-07-02T23:41:14.655Z,67.60
2018-07-02T23:43:43.243Z,67.60
2018-07-02T23:46:11.795Z,67.60
2018-07-02T23:48:40.393Z,68.20
2018-07-02T23:51:09.103Z,69.10
2018-07-02T23:53:37.712Z,68.80
2018-07-02T23:56:07.314Z,68.60
2018-07-02T23:58:36.219Z,68.40
